Touareg — J8NP — position and weather

sailwx.info

Track history (hours):
 
Tides and Currents Weather Stations Pressure Air Temp Water Temp Dewpoint Dewpoint Depression Visibility Wind Speed Wind Dir Waves Ship Positions

Touareg

Last reported at 2017-Sep-21 16:23 UTC. Time now 2017-Sep-23 03:48 UTC.
Position N 14°36' W 061°03'.

; draft 4.7 m.

Type: Other ship. MMSI: 377907128.

Date/timePositionNaut miles runAvg speedWind from/ knotsBaromVisibWave heightAir tempDewpointWater temp
2017-Sep-21 16:23N 14°36' W 061°03'0 1.1
2017-Sep-21 15:58N 14°36' W 061°03'1 0.0
2017-Sep-20 21:50N 14°35' W 061°03'  
2017-Sep-18 06:42N 13°53' W 061°08'1 6.2
2017-Sep-18 06:29N 13°54' W 061°09'3 6.9
2017-Sep-18 06:00N 13°57' W 061°07'3 5.9
2017-Sep-18 05:30N 13°60' W 061°05'3 5.1
2017-Sep-18 05:00N 14°02' W 061°04'3 5.4
2017-Sep-18 04:30N 14°04' W 061°03'3 5.3
2017-Sep-18 04:00N 14°07' W 061°02'3 5.4
2017-Sep-18 03:30N 14°09' W 061°03'2 5.0
2017-Sep-18 03:00N 14°12' W 061°03'3 5.1
2017-Sep-18 02:30N 14°14' W 061°04'21 4.5
2017-Sep-17 21:50N 14°35' W 061°03'  
2017-Sep-15 15:16N 14°36' W 061°04'1 2.9
2017-Sep-15 14:59N 14°35' W 061°03'0 0.7
2017-Sep-15 14:29N 14°36' W 061°03'0 0.0
2017-Sep-14 18:22N 14°36' W 061°04'1 1.5
2017-Sep-14 18:00N 14°35' W 061°04'1 0.0
2017-Sep-12 20:30N 14°36' W 061°04'5 9.4
2017-Sep-12 20:00N 14°32' W 061°06'5 9.2
2017-Sep-12 19:30N 14°28' W 061°06'510.1
2017-Sep-12 19:00N 14°23' W 061°05'510.2
2017-Sep-12 18:30N 14°18' W 061°04'5 9.8
2017-Sep-12 18:00N 14°13' W 061°03'  
Track history (hours):
 
Tides and Currents Weather Stations Pressure Air Temp Water Temp Dewpoint Dewpoint Depression Visibility Wind Speed Wind Dir Waves Ship Positions

Touareg

Last reported at 2017-Sep-21 16:23 UTC. Time now 2017-Sep-23 03:48 UTC.
Position N 14°36' W 061°03'.

; draft 4.7 m.

Type: Other ship. MMSI: 377907128.

Date/timePositionNaut miles runAvg speedWind from/ knotsBaromVisibWave heightAir tempDewpointWater temp
2017-Sep-21 16:23N 14°36' W 061°03'0 1.1
2017-Sep-21 15:58N 14°36' W 061°03'1 0.0
2017-Sep-20 21:50N 14°35' W 061°03'  
2017-Sep-18 06:42N 13°53' W 061°08'1 6.2
2017-Sep-18 06:29N 13°54' W 061°09'3 6.9
2017-Sep-18 06:00N 13°57' W 061°07'3 5.9
2017-Sep-18 05:30N 13°60' W 061°05'3 5.1
2017-Sep-18 05:00N 14°02' W 061°04'3 5.4
2017-Sep-18 04:30N 14°04' W 061°03'3 5.3
2017-Sep-18 04:00N 14°07' W 061°02'3 5.4
2017-Sep-18 03:30N 14°09' W 061°03'2 5.0
2017-Sep-18 03:00N 14°12' W 061°03'3 5.1
2017-Sep-18 02:30N 14°14' W 061°04'21 4.5
2017-Sep-17 21:50N 14°35' W 061°03'  
2017-Sep-15 15:16N 14°36' W 061°04'1 2.9
2017-Sep-15 14:59N 14°35' W 061°03'0 0.7
2017-Sep-15 14:29N 14°36' W 061°03'0 0.0
2017-Sep-14 18:22N 14°36' W 061°04'1 1.5
2017-Sep-14 18:00N 14°35' W 061°04'1 0.0
2017-Sep-12 20:30N 14°36' W 061°04'5 9.4
2017-Sep-12 20:00N 14°32' W 061°06'5 9.2
2017-Sep-12 19:30N 14°28' W 061°06'510.1
2017-Sep-12 19:00N 14°23' W 061°05'510.2
2017-Sep-12 18:30N 14°18' W 061°04'5 9.8
2017-Sep-12 18:00N 14°13' W 061°03'  

Dump ship's entire track history